Neunert, Illinois
Current Conditions -  °F | °C
As of 12:52 PM on Thursday 23 Oct 2014 (Local Time) from KMDH Reporting Station
Clear Clear  
Wind Chill: 59°   Ceiling: Unl
Heat Index: 59°   Visibility: 10mi
Dew Point: 42°   Wind: 5mph
Humidity: 53%   Direction: 190°S
Pressure: 30.2"   Gusts: NA
Location:  37.7458°N, 89.5469°W
Report Text: KMDH 231752Z 19004KT 10SM CLR 15/06 A3020 RMK AO2 SLP227 T01500056 58020
Loading
Personal Weather Stations






























Interactive Weather Map
Tropical Storm Tracking
New forecast layout! Learn more

10-Day Weather Forecast

Advertisements
Track Severe Weather on mobile